Weather observations for the past three days for
Springdale Municipal
Metric (Imperial)
Date Time (cdt) Wind (kph) Vis. (km) Weather Sky Cond. Temperature (ºC) Relative Humidity Wind Chill (°C) Heat Index (°C) Pressure Precipitation (cm)
Air Dwpt 6 hour altimeter (cm) sea level (mb) 1 hr 3 hr 6 hr
Max. Min.
03 20:48 S 15 16.09 Fair CLR 21 12 57% 76 0.0
03 19:48 SW 13 16.09 Fair CLR 23 12 50% 76 0.0
03 18:48 SW 15 16.09 Fair CLR 26 11 39% 26 76.02 0.0
03 17:48 S 24 16.09 Fair CLR 26 14 48% 26 76.02 0.0
03 16:48 SW 22 16.09 Fair CLR 26 14 48% 26 76.05 0.0
03 15:48 SW 19 G 31 16.09 Fair CLR 25 14 51% 26 76.15 0.0
03 14:48 S 24 16.09 Fair CLR 25 15 54% 26 76.2 0.0
03 13:48 SW 19 G 30 16.09 Fair CLR 24 13 50% 25 76.28 0.0
03 12:48 SW 26 G 35 16.09 Fair CLR 23 13 53% 76.3 0.0
03 11:48 SW 28 G 39 16.09 Fair CLR 22 12 53% 76.38 0.0
03 10:48 S 20 16.09 Fair CLR 20 10 53% 76.43 0.0
03 09:48 S 20 16.09 Fair CLR 17 9 60% 76.5 0.0
03 08:48 SE 13 16.09 Fair CLR 14 7 63% 76.5 0.0
03 07:48 SE 7 16.09 Fair CLR 10 6 76% 9 76.5 0.0
03 06:48 SE 6 16.09 Fair CLR 6 6 100% 76.48 0.0
03 05:48 Calm 16.09 Fair CLR 5 5 100% 76.45 0.0
02 20:48 NW 7 16.09 Fair CLR 15 5 51% 76.5 0.0
02 19:48 W 11 16.09 Fair CLR 16 5 48% 76.48 0.0
02 18:48 W 13 16.09 Fair CLR 18 5 43% 76.45 0.0
02 17:48 NW 17 16.09 Fair CLR 18 5 43% 76.48 0.0
02 16:48 NW 17 G 30 16.09 Fair CLR 19 5 40% 76.48 0.0
02 15:48 NW 17 G 31 16.09 Fair CLR 19 6 43% 76.5 0.0
02 14:48 W 17 G 31 16.09 Fair CLR 19 5 40% 76.53 0.0
02 13:48 N 15 G 33 16.09 Fair CLR 19 6 43% 76.56 0.0
02 11:48 N 13 G 22 16.09 Fair CLR 17 5 45% 76.63 0.0
02 10:48 NW 15 G 26 16.09 Fair CLR 16 4 45% 76.63 0.0
02 09:48 N 19 16.09 Fair CLR 15 5 51% 76.61 0.0
02 08:48 N 13 16.09 Fair CLR 13 10 82% 76.61 0.0
02 07:48 NW 6 16.09 A Few Clouds FEW070 11 9 88% 76.53 0.0
02 06:48 Calm 16.09 Mostly Cloudy BKN065 11 8 82% 76.53 0.0
02 05:48 Calm 16.09 Mostly Cloudy BKN065 BKN080 9 9 100% 76.48 0.0
01 20:48 Calm 16.09 Fair CLR 14 5 55% 76.4 0.0
01 19:48 NE 7 16.09 Fair CLR 15 4 48% 76.35 0.0
01 18:48 N 13 G 28 16.09 Fair CLR 16 3 42% 76.3 0.0
01 17:48 N 26 16.09 Fair CLR 18 3 37% 76.28 0.0
01 16:48 N 19 G 33 16.09 Fair CLR 18 4 40% 76.25 0.0
01 15:48 N 15 G 28 16.09 Fair CLR 18 2 34% 76.25 0.0
01 14:48 NE 9 G 22 16.09 Fair CLR 18 4 40% 76.38 0.0
01 13:48 NE 11 G 28 16.09 Fair CLR 18 3 37% 76.43 0.0
01 12:48 N 9 G 22 16.09 Fair CLR 17 8 56% 76.48 0.0
01 11:48 NE 9 16.09 Fair CLR 16 8 59% 76.48 0.0
01 10:48 E 9 16.09 Fair CLR 14 7 63% 76.5 0.0
01 09:48 NE 13 16.09 Fair CLR 13 8 72% 76.45 0.0
01 08:48 E 13 16.09 Fair CLR 13 9 77% 76.43 0.0
01 07:48 E 11 16.09 Fair CLR 10 10 100% 9 76.4 0.0
01 06:48 NE 7 16.09 Fair CLR 9 9 100% 8 76.4 0.0
01 05:48 Calm 16.09 Fair CLR 9 9 100% 76.4 0.0
Date Time (cdt) Wind (kph) Vis. (km) Weather Sky Cond. Air Dwpt Max. Min. Relative Humidity Wind Chill (°C) Heat Index (°C) altimeter (cm) sea level (mb) 1 hr 3 hr 6 hr
6 hour
Temperature (ºC) Pressure Precipitation (cm)